sensor_id;sensor_type;location;lat;lon;timestamp;pressure;altitude;pressure_sealevel;temperature;humidity
17254;BME280;32542;52.832;13.816;2023-04-25T00:00:41;100417.25;;;21.90;47.42
17254;BME280;32542;52.832;13.816;2023-04-25T00:03:44;100414.69;;;21.88;47.40
17254;BME280;32542;52.832;13.816;2023-04-25T00:06:47;100422.69;;;21.88;47.43
17254;BME280;32542;52.832;13.816;2023-04-25T00:09:50;100425.34;;;21.88;47.21
17254;BME280;32542;52.832;13.816;2023-04-25T00:12:54;100421.81;;;21.88;47.24
17254;BME280;32542;52.832;13.816;2023-04-25T00:15:59;100420.94;;;21.87;47.22
17254;BME280;32542;52.832;13.816;2023-04-25T00:19:02;100415.63;;;21.87;47.23
17254;BME280;32542;52.832;13.816;2023-04-25T00:22:05;100413.81;;;21.88;47.26
17254;BME280;32542;52.832;13.816;2023-04-25T00:25:09;100409.50;;;21.85;47.31
17254;BME280;32542;52.832;13.816;2023-04-25T00:28:13;100399.81;;;21.84;47.36
17254;BME280;32542;52.832;13.816;2023-04-25T00:31:16;100402.47;;;21.84;47.33
17254;BME280;32542;52.832;13.816;2023-04-25T00:34:19;100404.19;;;21.85;47.34
17254;BME280;32542;52.832;13.816;2023-04-25T00:37:22;100405.06;;;21.86;47.31
17254;BME280;32542;52.832;13.816;2023-04-25T00:40:25;100398.84;;;21.85;47.38
17254;BME280;32542;52.832;13.816;2023-04-25T00:43:30;100401.50;;;21.85;47.29
17254;BME280;32542;52.832;13.816;2023-04-25T00:46:35;100404.19;;;21.85;47.28
17254;BME280;32542;52.832;13.816;2023-04-25T00:49:38;100402.38;;;21.86;47.17
17254;BME280;32542;52.832;13.816;2023-04-25T00:52:43;100403.25;;;21.86;47.12
17254;BME280;32542;52.832;13.816;2023-04-25T00:55:47;100402.38;;;21.86;47.07
17254;BME280;32542;52.832;13.816;2023-04-25T00:58:54;100402.38;;;21.86;47.19
17254;BME280;32542;52.832;13.816;2023-04-25T01:01:58;100407.72;;;21.86;47.19
17254;BME280;32542;52.832;13.816;2023-04-25T01:05:01;100410.47;;;21.84;47.22
17254;BME280;32542;52.832;13.816;2023-04-25T01:08:04;100407.88;;;21.83;47.21
17254;BME280;32542;52.832;13.816;2023-04-25T01:11:07;100414.16;;;21.82;47.20
17254;BME280;32542;52.832;13.816;2023-04-25T01:14:12;100412.38;;;21.82;47.31
17254;BME280;32542;52.832;13.816;2023-04-25T01:17:15;100407.94;;;21.81;47.34
17254;BME280;32542;52.832;13.816;2023-04-25T01:20:21;100402.63;;;21.81;47.07
17254;BME280;32542;52.832;13.816;2023-04-25T01:23:26;100397.28;;;21.81;47.18
17254;BME280;32542;52.832;13.816;2023-04-25T01:26:29;100393.72;;;21.82;47.05
17254;BME280;32542;52.832;13.816;2023-04-25T01:29:32;100398.16;;;21.82;47.07
17254;BME280;32542;52.832;13.816;2023-04-25T01:32:35;100394.56;;;21.83;47.00
17254;BME280;32542;52.832;13.816;2023-04-25T01:35:40;100394.63;;;21.81;46.93
17254;BME280;32542;52.832;13.816;2023-04-25T01:38:45;100400.75;;;21.83;46.79
17254;BME280;32542;52.832;13.816;2023-04-25T01:41:49;100395.41;;;21.83;46.91
17254;BME280;32542;52.832;13.816;2023-04-25T01:44:52;100395.56;;;21.80;46.98
17254;BME280;32542;52.832;13.816;2023-04-25T01:47:55;100415.16;;;21.79;47.11
17254;BME280;32542;52.832;13.816;2023-04-25T01:51:00;100410.72;;;21.80;47.01
17254;BME280;32542;52.832;13.816;2023-04-25T01:54:05;100416.03;;;21.80;46.97
17254;BME280;32542;52.832;13.816;2023-04-25T01:57:08;100415.34;;;21.76;47.02
17254;BME280;32542;52.832;13.816;2023-04-25T02:00:14;100421.28;;;21.81;47.32
17254;BME280;32542;52.832;13.816;2023-04-25T02:03:16;100412.19;;;21.85;46.55
17254;BME280;32542;52.832;13.816;2023-04-25T02:06:19;100412.94;;;21.87;46.38
17254;BME280;32542;52.832;13.816;2023-04-25T02:09:27;100415.53;;;21.89;46.30
17254;BME280;32542;52.832;13.816;2023-04-25T02:12:31;100423.44;;;21.90;46.22
17254;BME280;32542;52.832;13.816;2023-04-25T02:15:53;100420.84;;;21.89;46.32
17254;BME280;32542;52.832;13.816;2023-04-25T02:18:56;100424.47;;;21.88;46.27
17254;BME280;32542;52.832;13.816;2023-04-25T02:22:00;100423.63;;;21.87;46.34
17254;BME280;32542;52.832;13.816;2023-04-25T02:25:05;100432.56;;;21.86;46.34
17254;BME280;32542;52.832;13.816;2023-04-25T02:28:08;100421.03;;;21.86;46.43
17254;BME280;32542;52.832;13.816;2023-04-25T02:31:12;100416.66;;;21.85;46.40
17254;BME280;32542;52.832;13.816;2023-04-25T02:34:15;100425.59;;;21.84;46.32
17254;BME280;32542;52.832;13.816;2023-04-25T02:37:17;100421.28;;;21.81;46.35
17254;BME280;32542;52.832;13.816;2023-04-25T02:40:22;100418.78;;;21.78;46.46
17254;BME280;32542;52.832;13.816;2023-04-25T02:43:24;100418.00;;;21.76;46.57
17254;BME280;32542;52.832;13.816;2023-04-25T02:46:27;100425.22;;;21.74;46.56
17254;BME280;32542;52.832;13.816;2023-04-25T02:49:40;100418.28;;;21.71;46.68
17254;BME280;32542;52.832;13.816;2023-04-25T02:52:43;100419.31;;;21.69;46.76
17254;BME280;32542;52.832;13.816;2023-04-25T02:55:51;100415.78;;;21.68;46.73
17254;BME280;32542;52.832;13.816;2023-04-25T02:58:54;100422.16;;;21.66;46.77
17254;BME280;32542;52.832;13.816;2023-04-25T03:01:57;100423.28;;;21.62;46.84
17254;BME280;32542;52.832;13.816;2023-04-25T03:05:00;100434.91;;;21.61;46.79
17254;BME280;32542;52.832;13.816;2023-04-25T03:08:04;100426.03;;;21.60;46.78
17254;BME280;32542;52.832;13.816;2023-04-25T03:11:09;100428.59;;;21.62;46.67
17254;BME280;32542;52.832;13.816;2023-04-25T03:14:13;100428.69;;;21.60;46.72
17254;BME280;32542;52.832;13.816;2023-04-25T03:17:15;100414.66;;;21.57;46.75
17254;BME280;32542;52.832;13.816;2023-04-25T03:20:18;100417.94;;;21.62;46.68
17254;BME280;32542;52.832;13.816;2023-04-25T03:23:21;100421.63;;;21.59;46.72
17254;BME280;32542;52.832;13.816;2023-04-25T03:26:25;100421.72;;;21.58;46.75
17254;BME280;32542;52.832;13.816;2023-04-25T03:29:28;100421.72;;;21.58;46.69
17254;BME280;32542;52.832;13.816;2023-04-25T03:32:34;100414.50;;;21.60;46.72
17254;BME280;32542;52.832;13.816;2023-04-25T03:35:36;100418.28;;;21.56;46.71
17254;BME280;32542;52.832;13.816;2023-04-25T03:38:39;100418.28;;;21.56;46.85
17254;BME280;32542;52.832;13.816;2023-04-25T03:41:45;100425.16;;;21.60;46.63
17254;BME280;32542;52.832;13.816;2023-04-25T03:44:49;100429.47;;;21.62;46.59
17254;BME280;32542;52.832;13.816;2023-04-25T03:47:52;100421.28;;;21.65;46.59
17254;BME280;32542;52.832;13.816;2023-04-25T03:50:55;100429.22;;;21.67;46.59
17254;BME280;32542;52.832;13.816;2023-04-25T03:53:58;100424.81;;;21.66;46.55
17254;BME280;32542;52.832;13.816;2023-04-25T03:57:30;100430.13;;;21.66;46.48
17254;BME280;32542;52.832;13.816;2023-04-25T04:00:33;100435.47;;;21.66;46.58
17254;BME280;32542;52.832;13.816;2023-04-25T04:03:36;100426.53;;;21.67;46.55
17254;BME280;32542;52.832;13.816;2023-04-25T04:06:40;100433.78;;;21.65;46.61
17254;BME280;32542;52.832;13.816;2023-04-25T04:09:49;100440.13;;;21.62;46.56
17254;BME280;32542;52.832;13.816;2023-04-25T04:13:00;100435.81;;;21.60;46.64
17254;BME280;32542;52.832;13.816;2023-04-25T04:16:02;100446.47;;;21.60;46.72
17254;BME280;32542;52.832;13.816;2023-04-25T04:19:06;100449.16;;;21.60;46.72
17254;BME280;32542;52.832;13.816;2023-04-25T04:22:10;100447.16;;;21.63;46.54
17254;BME280;32542;52.832;13.816;2023-04-25T04:25:14;100455.09;;;21.65;46.30
17254;BME280;32542;52.832;13.816;2023-04-25T04:28:38;100455.09;;;21.65;46.41
17254;BME280;32542;52.832;13.816;2023-04-25T04:32:01;100461.44;;;21.62;46.54
17254;BME280;32542;52.832;13.816;2023-04-25T04:35:07;100461.53;;;21.61;46.55
17254;BME280;32542;52.832;13.816;2023-04-25T04:38:10;100470.47;;;21.60;46.60
17254;BME280;32542;52.832;13.816;2023-04-25T04:41:14;100465.03;;;21.61;46.60
17254;BME280;32542;52.832;13.816;2023-04-25T04:44:42;100467.78;;;21.60;46.50
17254;BME280;32542;52.832;13.816;2023-04-25T04:47:59;100470.47;;;21.60;46.54
17254;BME280;32542;52.832;13.816;2023-04-25T04:51:21;100470.56;;;21.58;46.58
17254;BME280;32542;52.832;13.816;2023-04-25T04:54:24;100464.50;;;21.55;46.70
17254;BME280;32542;52.832;13.816;2023-04-25T04:57:38;100468.16;;;21.54;46.74
17254;BME280;32542;52.832;13.816;2023-04-25T05:00:59;100476.72;;;21.59;46.66
17254;BME280;32542;52.832;13.816;2023-04-25T05:04:22;100466.88;;;21.61;46.62
17254;BME280;32542;52.832;13.816;2023-04-25T05:07:44;100464.97;;;21.63;46.35
17254;BME280;32542;52.832;13.816;2023-04-25T05:11:00;100471.06;;;21.65;46.51
17254;BME280;32542;52.832;13.816;2023-04-25T05:14:16;100470.97;;;21.66;46.42
17254;BME280;32542;52.832;13.816;2023-04-25T05:17:43;100471.84;;;21.67;46.30
17254;BME280;32542;52.832;13.816;2023-04-25T05:21:07;100471.84;;;21.67;46.32
17254;BME280;32542;52.832;13.816;2023-04-25T05:24:19;100476.22;;;21.68;46.29
17254;BME280;32542;52.832;13.816;2023-04-25T05:27:43;100478.97;;;21.66;46.38
17254;BME280;32542;52.832;13.816;2023-04-25T05:31:18;100481.88;;;21.62;46.50
17254;BME280;32542;52.832;13.816;2023-04-25T05:34:44;100485.53;;;21.61;46.44
17254;BME280;32542;52.832;13.816;2023-04-25T05:37:56;100486.44;;;21.60;46.61
17254;BME280;32542;52.832;13.816;2023-04-25T05:41:17;100491.69;;;21.61;46.49
17254;BME280;32542;52.832;13.816;2023-04-25T05:44:33;100503.97;;;21.64;nan
17254;BME280;32542;52.832;13.816;2023-04-25T05:47:50;100493.31;;;21.64;46.30
17254;BME280;32542;52.832;13.816;2023-04-25T05:50:58;100501.22;;;21.65;46.27
17254;BME280;32542;52.832;13.816;2023-04-25T05:54:20;100503.97;;;21.64;46.37
17254;BME280;32542;52.832;13.816;2023-04-25T05:57:24;100502.19;;;21.64;46.31
17254;BME280;32542;52.832;13.816;2023-04-25T06:00:29;100504.06;;;21.62;46.40
17254;BME280;32542;52.832;13.816;2023-04-25T06:03:32;100501.56;;;21.59;46.50
17254;BME280;32542;52.832;13.816;2023-04-25T06:06:36;100507.75;;;21.60;46.45
17254;BME280;32542;52.832;13.816;2023-04-25T06:09:39;100507.75;;;21.60;46.38
17254;BME280;32542;52.832;13.816;2023-04-25T06:12:43;100502.44;;;21.60;46.49
17254;BME280;32542;52.832;13.816;2023-04-25T06:15:48;100515.84;;;21.58;46.44
17254;BME280;32542;52.832;13.816;2023-04-25T06:18:51;100514.03;;;21.59;nan
17254;BME280;32542;52.832;13.816;2023-04-25T06:21:56;100513.09;;;21.60;46.37
17254;BME280;32542;52.832;13.816;2023-04-25T06:24:59;100517.50;;;21.61;46.43
17254;BME280;32542;52.832;13.816;2023-04-25T06:28:02;100513.88;;;21.62;46.26
17254;BME280;32542;52.832;13.816;2023-04-25T06:31:06;100519.19;;;21.62;46.39
17254;BME280;32542;52.832;13.816;2023-04-25T06:34:09;100516.53;;;21.62;46.38
17254;BME280;32542;52.832;13.816;2023-04-25T06:37:16;100508.53;;;21.62;46.37
17254;BME280;32542;52.832;13.816;2023-04-25T06:40:18;100514.81;;;21.61;46.43
17254;BME280;32542;52.832;13.816;2023-04-25T06:43:21;100519.34;;;21.59;46.36
17254;BME280;32542;52.832;13.816;2023-04-25T06:46:46;100520.41;;;21.56;46.42
17254;BME280;32542;52.832;13.816;2023-04-25T06:49:49;100514.22;;;21.56;46.32
17254;BME280;32542;52.832;13.816;2023-04-25T06:52:53;100517.81;;;21.55;46.45
17254;BME280;32542;52.832;13.816;2023-04-25T06:55:58;100523.13;;;21.55;46.46
17254;BME280;32542;52.832;13.816;2023-04-25T06:59:10;100512.41;;;21.56;46.36
17254;BME280;32542;52.832;13.816;2023-04-25T07:02:14;100508.69;;;21.59;46.32
17254;BME280;32542;52.832;13.816;2023-04-25T07:05:18;100513.19;;;21.58;46.33
17254;BME280;32542;52.832;13.816;2023-04-25T07:08:22;100521.09;;;21.60;46.39
17254;BME280;32542;52.832;13.816;2023-04-25T07:11:25;100521.88;;;21.62;46.42
17254;BME280;32542;52.832;13.816;2023-04-25T07:14:27;100528.84;;;21.64;46.37
17254;BME280;32542;52.832;13.816;2023-04-25T07:17:32;100528.75;;;21.66;46.42
17254;BME280;32542;52.832;13.816;2023-04-25T07:20:36;100527.03;;;21.65;46.50
17254;BME280;32542;52.832;13.816;2023-04-25T07:23:40;100534.06;;;21.66;46.59
17254;BME280;32542;52.832;13.816;2023-04-25T07:26:48;100540.16;;;21.68;46.58
17254;BME280;32542;52.832;13.816;2023-04-25T07:30:05;100540.16;;;21.68;46.65
17254;BME280;32542;52.832;13.816;2023-04-25T07:33:08;100550.75;;;21.69;46.68
17254;BME280;32542;52.832;13.816;2023-04-25T07:36:11;100556.00;;;21.71;46.83
17254;BME280;32542;52.832;13.816;2023-04-25T07:39:15;100560.38;;;21.72;46.84
17254;BME280;32542;52.832;13.816;2023-04-25T07:42:18;100555.81;;;21.74;46.85
17254;BME280;32542;52.832;13.816;2023-04-25T07:45:22;100554.88;;;21.75;46.94
17254;BME280;32542;52.832;13.816;2023-04-25T07:48:26;100563.66;;;21.77;46.89
17254;BME280;32542;52.832;13.816;2023-04-25T07:51:30;100568.03;;;21.78;46.90
17254;BME280;32542;52.832;13.816;2023-04-25T07:54:40;100576.81;;;21.80;46.85
17254;BME280;32542;52.832;13.816;2023-04-25T07:57:49;100565.31;;;21.80;46.98
17254;BME280;32542;52.832;13.816;2023-04-25T08:00:54;100574.13;;;21.80;46.73
17254;BME280;32542;52.832;13.816;2023-04-25T08:04:19;100574.13;;;21.80;46.84
17254;BME280;32542;52.832;13.816;2023-04-25T08:07:36;100577.66;;;21.81;46.99
17254;BME280;32542;52.832;13.816;2023-04-25T08:10:41;100589.19;;;21.81;47.12
17254;BME280;32542;52.832;13.816;2023-04-25T08:13:46;100596.31;;;21.82;47.08
17254;BME280;32542;52.832;13.816;2023-04-25T08:16:49;100602.53;;;21.81;46.98
17254;BME280;32542;52.832;13.816;2023-04-25T08:19:53;100612.28;;;21.82;47.09
17254;BME280;32542;52.832;13.816;2023-04-25T08:23:01;100613.13;;;21.83;47.02
17254;BME280;32542;52.832;13.816;2023-04-25T08:26:19;100619.31;;;21.83;47.05
17254;BME280;32542;52.832;13.816;2023-04-25T08:29:24;100619.31;;;21.83;47.13
17254;BME280;32542;52.832;13.816;2023-04-25T08:32:27;100621.06;;;21.84;47.09
17254;BME280;32542;52.832;13.816;2023-04-25T08:35:59;100621.91;;;21.85;47.05
17254;BME280;32542;52.832;13.816;2023-04-25T08:39:03;100623.72;;;21.84;46.99
17254;BME280;32542;52.832;13.816;2023-04-25T08:42:15;100633.44;;;21.85;46.98
17254;BME280;32542;52.832;13.816;2023-04-25T08:45:18;100637.06;;;21.84;47.05
17254;BME280;32542;52.832;13.816;2023-04-25T08:48:21;100638.75;;;21.85;47.15
17254;BME280;32542;52.832;13.816;2023-04-25T08:51:30;100637.91;;;21.85;47.14
17254;BME280;32542;52.832;13.816;2023-04-25T08:54:36;100637.91;;;21.85;47.04
17254;BME280;32542;52.832;13.816;2023-04-25T08:57:44;100645.84;;;21.86;47.07
17254;BME280;32542;52.832;13.816;2023-04-25T09:00:48;100643.06;;;21.88;47.02
17254;BME280;32542;52.832;13.816;2023-04-25T09:03:52;100642.97;;;21.89;46.81
17254;BME280;32542;52.832;13.816;2023-04-25T09:06:56;100645.66;;;21.89;46.86
17254;BME280;32542;52.832;13.816;2023-04-25T09:10:00;100638.53;;;21.90;47.05
17254;BME280;32542;52.832;13.816;2023-04-25T09:13:12;100651.75;;;21.91;46.92
17254;BME280;32542;52.832;13.816;2023-04-25T09:16:59;100656.16;;;21.92;46.99
17254;BME280;32542;52.832;13.816;2023-04-25T09:20:13;100665.09;;;21.91;47.03
17254;BME280;32542;52.832;13.816;2023-04-25T09:23:16;100654.50;;;21.90;46.91
17254;BME280;32542;52.832;13.816;2023-04-25T09:26:21;100658.06;;;21.90;46.68
17254;BME280;32542;52.832;13.816;2023-04-25T09:29:36;100655.44;;;21.89;46.47
17254;BME280;32542;52.832;13.816;2023-04-25T09:32:42;100652.78;;;21.89;46.17
17254;BME280;32542;52.832;13.816;2023-04-25T09:35:46;100650.28;;;21.86;46.16
17254;BME280;32542;52.832;13.816;2023-04-25T09:39:14;100650.19;;;21.87;46.14
17254;BME280;32542;52.832;13.816;2023-04-25T09:42:26;100654.66;;;21.87;46.07
17254;BME280;32542;52.832;13.816;2023-04-25T09:45:40;100663.53;;;21.87;46.07
17254;BME280;32542;52.832;13.816;2023-04-25T09:48:50;100662.66;;;21.87;45.86
17254;BME280;32542;52.832;13.816;2023-04-25T09:52:13;100669.75;;;21.88;45.74
17254;BME280;32542;52.832;13.816;2023-04-25T09:55:33;100652.88;;;21.87;45.65
17254;BME280;32542;52.832;13.816;2023-04-25T09:58:37;100657.34;;;21.87;45.64
17254;BME280;32542;52.832;13.816;2023-04-25T10:01:43;100662.66;;;21.87;45.55
17254;BME280;32542;52.832;13.816;2023-04-25T10:04:54;100664.50;;;21.86;45.48
17254;BME280;32542;52.832;13.816;2023-04-25T10:08:05;100673.31;;;21.87;45.27
17254;BME280;32542;52.832;13.816;2023-04-25T10:11:10;100675.16;;;21.86;45.29
17254;BME280;32542;52.832;13.816;2023-04-25T10:14:16;100663.63;;;21.86;45.09
17254;BME280;32542;52.832;13.816;2023-04-25T10:17:20;100676.97;;;21.86;45.17
17254;BME280;32542;52.832;13.816;2023-04-25T10:20:23;100676.97;;;21.86;45.05
17254;BME280;32542;52.832;13.816;2023-04-25T10:23:27;100682.28;;;21.86;44.95
17254;BME280;32542;52.832;13.816;2023-04-25T10:26:32;100679.63;;;21.86;44.90
17254;BME280;32542;52.832;13.816;2023-04-25T10:29:35;100686.75;;;21.85;44.59
17254;BME280;32542;52.832;13.816;2023-04-25T10:32:41;100676.97;;;21.86;44.48
17254;BME280;32542;52.832;13.816;2023-04-25T10:35:45;100684.19;;;21.84;44.35
17254;BME280;32542;52.832;13.816;2023-04-25T10:38:48;100682.38;;;21.84;44.59
17254;BME280;32542;52.832;13.816;2023-04-25T10:41:53;100678.84;;;21.84;44.64
17254;BME280;32542;52.832;13.816;2023-04-25T10:45:01;100684.19;;;21.84;44.75
17254;BME280;32542;52.832;13.816;2023-04-25T10:48:24;100688.63;;;21.83;44.85
17254;BME280;32542;52.832;13.816;2023-04-25T10:51:29;100702.94;;;21.82;44.89
17254;BME280;32542;52.832;13.816;2023-04-25T10:54:54;100701.09;;;21.83;45.11
17254;BME280;32542;52.832;13.816;2023-04-25T10:57:57;100704.63;;;21.83;45.11
17254;BME280;32542;52.832;13.816;2023-04-25T11:01:01;100713.50;;;21.84;45.27
17254;BME280;32542;52.832;13.816;2023-04-25T11:04:05;100717.97;;;21.83;45.35
17254;BME280;32542;52.832;13.816;2023-04-25T11:07:16;100721.50;;;21.84;45.52
17254;BME280;32542;52.832;13.816;2023-04-25T11:10:25;100722.38;;;21.84;45.76
17254;BME280;32542;52.832;13.816;2023-04-25T11:13:29;100728.53;;;21.85;45.96
17254;BME280;32542;52.832;13.816;2023-04-25T11:16:32;100727.69;;;21.84;45.89
17254;BME280;32542;52.832;13.816;2023-04-25T11:19:36;100727.69;;;21.84;46.21
17254;BME280;32542;52.832;13.816;2023-04-25T11:22:40;100732.16;;;21.84;46.47
17254;BME280;32542;52.832;13.816;2023-04-25T11:25:43;100728.53;;;21.85;46.62
17254;BME280;32542;52.832;13.816;2023-04-25T11:28:48;100733.88;;;21.85;46.76
17254;BME280;32542;52.832;13.816;2023-04-25T11:31:52;100736.53;;;21.85;46.90
17254;BME280;32542;52.832;13.816;2023-04-25T11:34:57;100738.34;;;21.84;47.04
17254;BME280;32542;52.832;13.816;2023-04-25T11:38:01;100749.03;;;21.84;47.11
17254;BME280;32542;52.832;13.816;2023-04-25T11:41:03;100750.72;;;21.85;47.28
17254;BME280;32542;52.832;13.816;2023-04-25T11:44:06;100758.72;;;21.85;47.21
17254;BME280;32542;52.832;13.816;2023-04-25T11:47:09;100765.78;;;21.86;47.22
17254;BME280;32542;52.832;13.816;2023-04-25T11:50:14;100764.94;;;21.86;47.23
17254;BME280;32542;52.832;13.816;2023-04-25T11:53:17;100769.38;;;21.85;47.24
17254;BME280;32542;52.832;13.816;2023-04-25T11:56:21;100767.59;;;21.86;47.32
17254;BME280;32542;52.832;13.816;2023-04-25T11:59:24;100772.06;;;21.85;47.46
17254;BME280;32542;52.832;13.816;2023-04-25T12:02:28;100772.94;;;21.86;47.51
17254;BME280;32542;52.832;13.816;2023-04-25T12:05:32;100780.06;;;21.85;47.59
17254;BME280;32542;52.832;13.816;2023-04-25T12:08:36;100777.69;;;21.79;45.79
17254;BME280;32542;52.832;13.816;2023-04-25T12:11:42;100775.44;;;21.71;43.41
17254;BME280;32542;52.832;13.816;2023-04-25T12:14:47;100792.44;;;21.69;43.47
17254;BME280;32542;52.832;13.816;2023-04-25T12:17:52;100785.34;;;21.68;43.83
17254;BME280;32542;52.832;13.816;2023-04-25T12:20:57;100794.31;;;21.67;43.55
17254;BME280;32542;52.832;13.816;2023-04-25T12:24:12;100788.97;;;21.67;42.85
17254;BME280;32542;52.832;13.816;2023-04-25T12:27:16;100798.69;;;21.68;42.70
17254;BME280;32542;52.832;13.816;2023-04-25T12:30:21;100799.47;;;21.70;42.93
17254;BME280;32542;52.832;13.816;2023-04-25T12:33:24;100805.66;;;21.70;42.85
17254;BME280;32542;52.832;13.816;2023-04-25T12:36:28;100801.22;;;21.71;42.90
17254;BME280;32542;52.832;13.816;2023-04-25T12:39:32;100812.75;;;21.71;43.11
17254;BME280;32542;52.832;13.816;2023-04-25T12:42:35;100819.78;;;21.72;43.29
17254;BME280;32542;52.832;13.816;2023-04-25T12:45:38;100816.19;;;21.73;43.33
17254;BME280;32542;52.832;13.816;2023-04-25T12:48:42;100820.66;;;21.73;43.41
17254;BME280;32542;52.832;13.816;2023-04-25T12:51:46;100816.19;;;21.73;43.58
17254;BME280;32542;52.832;13.816;2023-04-25T12:54:49;100818.75;;;21.75;43.70
17254;BME280;32542;52.832;13.816;2023-04-25T12:57:52;100820.47;;;21.76;43.86
17254;BME280;32542;52.832;13.816;2023-04-25T13:00:55;100824.88;;;21.77;44.25
17254;BME280;32542;52.832;13.816;2023-04-25T13:03:58;100823.91;;;21.78;44.28
17254;BME280;32542;52.832;13.816;2023-04-25T13:07:02;100822.03;;;21.80;44.32
17254;BME280;32542;52.832;13.816;2023-04-25T13:10:06;100818.44;;;21.81;44.43
17254;BME280;32542;52.832;13.816;2023-04-25T13:13:09;100813.13;;;21.81;44.48
17254;BME280;32542;52.832;13.816;2023-04-25T13:16:12;100815.72;;;21.83;44.63
17254;BME280;32542;52.832;13.816;2023-04-25T13:19:16;100816.59;;;21.83;44.62
17254;BME280;32542;52.832;13.816;2023-04-25T13:22:20;100819.25;;;21.83;44.78
17254;BME280;32542;52.832;13.816;2023-04-25T13:25:23;100820.03;;;21.85;44.92
17254;BME280;32542;52.832;13.816;2023-04-25T13:28:26;100811.13;;;21.86;45.07
17254;BME280;32542;52.832;13.816;2023-04-25T13:31:29;100818.25;;;21.86;45.24
17254;BME280;32542;52.832;13.816;2023-04-25T13:34:32;100814.63;;;21.87;45.17
17254;BME280;32542;52.832;13.816;2023-04-25T13:37:37;100815.59;;;21.86;45.38
17254;BME280;32542;52.832;13.816;2023-04-25T13:40:40;100811.13;;;21.86;45.81
17254;BME280;32542;52.832;13.816;2023-04-25T13:43:43;100825.38;;;21.85;45.76
17254;BME280;32542;52.832;13.816;2023-04-25T13:46:46;100821.78;;;21.86;45.74
17254;BME280;32542;52.832;13.816;2023-04-25T13:49:49;100831.56;;;21.86;45.60
17254;BME280;32542;52.832;13.816;2023-04-25T13:52:53;100835.13;;;21.86;45.74
17254;BME280;32542;52.832;13.816;2023-04-25T13:55:56;100847.56;;;21.86;45.72
17254;BME280;32542;52.832;13.816;2023-04-25T13:58:58;100851.09;;;21.86;45.61
17254;BME280;32542;52.832;13.816;2023-04-25T14:02:01;100849.38;;;21.85;45.55
17254;BME280;32542;52.832;13.816;2023-04-25T14:05:05;100854.78;;;21.84;45.64
17254;BME280;32542;52.832;13.816;2023-04-25T14:08:09;100855.66;;;21.84;45.60
17254;BME280;32542;52.832;13.816;2023-04-25T14:11:12;100848.59;;;21.83;45.56
17254;BME280;32542;52.832;13.816;2023-04-25T14:14:15;100852.13;;;21.84;45.72
17254;BME280;32542;52.832;13.816;2023-04-25T14:17:18;100855.66;;;21.84;45.81
17254;BME280;32542;52.832;13.816;2023-04-25T14:20:21;100852.13;;;21.84;45.67
17254;BME280;32542;52.832;13.816;2023-04-25T14:23:26;100862.69;;;21.85;45.75
17254;BME280;32542;52.832;13.816;2023-04-25T14:26:29;100870.69;;;21.85;45.75
17254;BME280;32542;52.832;13.816;2023-04-25T14:29:32;100857.38;;;21.85;45.76
17254;BME280;32542;52.832;13.816;2023-04-25T14:32:35;100866.31;;;21.84;45.91
17254;BME280;32542;52.832;13.816;2023-04-25T14:35:38;100862.69;;;21.85;45.88
17254;BME280;32542;52.832;13.816;2023-04-25T14:38:42;100862.69;;;21.85;45.76
17254;BME280;32542;52.832;13.816;2023-04-25T14:41:45;100858.25;;;21.86;45.81
17254;BME280;32542;52.832;13.816;2023-04-25T14:44:48;100855.56;;;21.86;45.81
17254;BME280;32542;52.832;13.816;2023-04-25T14:47:51;100860.91;;;21.86;45.78
17254;BME280;32542;52.832;13.816;2023-04-25T14:50:54;100852.91;;;21.86;45.76
17254;BME280;32542;52.832;13.816;2023-04-25T14:53:59;100864.44;;;21.86;45.87
17254;BME280;32542;52.832;13.816;2023-04-25T14:57:02;100854.63;;;21.87;45.85
17254;BME280;32542;52.832;13.816;2023-04-25T15:00:06;100851.94;;;21.87;45.97
17254;BME280;32542;52.832;13.816;2023-04-25T15:03:11;100851.94;;;21.87;45.91
17254;BME280;32542;52.832;13.816;2023-04-25T15:06:14;100854.63;;;21.87;45.95
17254;BME280;32542;52.832;13.816;2023-04-25T15:09:19;100857.22;;;21.88;45.93
17254;BME280;32542;52.832;13.816;2023-04-25T15:12:22;100857.22;;;21.88;45.96
17254;BME280;32542;52.832;13.816;2023-04-25T15:15:24;100849.22;;;21.88;45.94
17254;BME280;32542;52.832;13.816;2023-04-25T15:18:28;100855.47;;;21.87;46.00
17254;BME280;32542;52.832;13.816;2023-04-25T15:21:31;100864.34;;;21.88;45.92
17254;BME280;32542;52.832;13.816;2023-04-25T15:24:35;100860.81;;;21.87;45.92
17254;BME280;32542;52.832;13.816;2023-04-25T15:27:39;100862.56;;;21.88;45.91
17254;BME280;32542;52.832;13.816;2023-04-25T15:30:45;100867.88;;;21.88;45.99
17254;BME280;32542;52.832;13.816;2023-04-25T15:33:47;100866.16;;;21.87;46.02
17254;BME280;32542;52.832;13.816;2023-04-25T15:36:51;100864.44;;;21.86;46.03
17254;BME280;32542;52.832;13.816;2023-04-25T15:40:01;100863.47;;;21.87;46.00
17254;BME280;32542;52.832;13.816;2023-04-25T15:43:07;100871.47;;;21.87;46.09
17254;BME280;32542;52.832;13.816;2023-04-25T15:46:16;100867.94;;;21.87;46.19
17254;BME280;32542;52.832;13.816;2023-04-25T15:49:19;100869.78;;;21.86;46.09
17254;BME280;32542;52.832;13.816;2023-04-25T15:52:22;100872.44;;;21.86;46.12
17254;BME280;32542;52.832;13.816;2023-04-25T15:55:26;100881.34;;;21.85;46.20
17254;BME280;32542;52.832;13.816;2023-04-25T15:58:29;100878.69;;;21.85;46.07
17254;BME280;32542;52.832;13.816;2023-04-25T16:01:32;100884.03;;;21.85;46.09